Decoded Metar for UKLR (ROVNO in UKRAINE) (IATA:N/A) | Meteo·Mobile Aviation Weather
aviador You're here:

UKLR Decoded Metar

ROVNO in UKRAINE
Report Time2019-12-06 14:30:00
UTC Time2019-12-06 15:02:38
Flight Rules vfr VFR
Wind230° at 6 kt
W.Decomp.*RWY 30: 1.8 kt HW 5.7 kt LCW
Visibility9999 m
Phenomena:N/A
Clouds:N/A
Expected CloudBase > 2,400 ft AGL from Temp-Dew spread
CeilingNone
Temp01°C (ISA -13)
Dew Point-5°C (65% RH)
AAT-3.8°C
QNH1015 hPa
Density Alt-774 ft
Elevation755 ft
Report Wrong Elevation
Raw Report
UKLR 061430Z 23003MPS CAVOK 01/M05 Q1015 R29/090070 NOSIG=

Extra information for UKLR:More info

Metar Taf Metar & Taf Last 4 Metars F.Rules Stats Wind Profile Meteogram Temp Stats Airport Information Weather charts Add Link Nearby VenuesMetar ALERT Operation Metar Decoded Social comments